Aérodrome :
LOGIN :

S'inscrire | Disclaimer

   EN    FR    IT 

 










Légende :    VFR   VFR Marginal   IFR   IFR Intensif   IFR Très Intensif
Visi : 
Plafond : 
>= 8 km
>= 3000ft
5 à 8 km
1000 à 3000 ft
1500m à 5 km
500 à 1000 ft
800 à 1500m
200 à 500 ft
< 800m
< 200 ft
Symboles :   Orages  Brouillard  Fortes neiges  Fortes précipitations  Vent > 20 kt
SIGMETs :   Divers  Orages  Givrage  Turbulence  Onde Orograph.  Cendres Volcan.







- Altitude de l'aérodrome : 935 ft


EBFS - Florennes

DERNIER METAR :
  • 180625Z 03007KT 4000 BR FEW004 BKN006 12/11 Q1023 YLO GRN TEMPO YLO

METARs EXPIRÉS :
  • 180555Z 03006KT 4000 BR BKN005 BKN014 12/11 Q1022 YLO GRN TEMPO YLO
  • 180525Z 03005KT 4000 BR SCT006 BKN012 12/11 Q1022 YLO GRN TEMPO YLO
  • 180455Z 02003KT 4000 BR SCT006 BKN013 12/11 Q1022 YLO GRN TEMPO YLO
  • 180425Z 02003KT 4000 BR FEW006 SCT013 BKN022 12/11 Q1022 GRN GRN

TAF TAF EBFS
Valide du 18 à 07h jusqu'au 18 à 16h UTC


180541Z 1807/1816 05005G15KT 4000 BR SCT008 BKN014
BECMG 1808/1810 8000 SCT015 BKN020
BECMG 1809/1811 9999 FEW022 SCT025
TEMPO 1809/1812 SCT018 BKN025
TEMPO 1810/1816 05010G20KT
Pas de NOTAMs connus pour ce terrain.



MET'MAP, la Météo Aéronautique d'un coup d'oeil ! - Copyright ORBIFLY Décembre 2007 - Disclaimer

ORBIFLY MET'MAP TEAM :

Programmation & Développement : Alexandra Zaïnal
Conception & Développement : Baudouin d'Aumeries
Co-Programmation & Développement : Marc-Olivier Méhu
Soutien technique & logistique : Manuel Goepfert

Contact : metmap@orbifly.com




SOURCES & CREDITS :

   NOAA